Time;durP1;ratioP1;P1;durP2;ratioP2;P2;SDS_P1;SDS_P2;PMS_P1;PMS_P2;Temp;Humidity;BMP_temperature;BMP_pressure;BME280_temperature;BME280_humidity;BME280_pressure;Samples;Min_cycle;Max_cycle;Signal;HPM_P1;HPM_P2
2021/04/04 00:01:53;;;;;;;6.95;5.57;;;7.10;99.90;;;;;;4997257;28;20014;-82
2021/04/04 00:04:19;;;;;;;7.80;4.95;;;7.10;99.90;;;;;;4993368;28;20025;-83
2021/04/04 00:06:45;;;;;;;6.35;5.18;;;7.10;99.90;;;;;;4992983;28;20030;-85
2021/04/04 00:09:11;;;;;;;8.10;4.85;;;7.30;99.90;;;;;;4993044;28;20386;-82
2021/04/04 00:11:39;;;;;;;5.95;4.88;;;7.20;99.90;;;;;;4992434;28;20026;-81
2021/04/04 00:14:05;;;;;;;5.28;4.35;;;7.30;99.90;;;;;;5006985;28;20030;-80
2021/04/04 00:16:31;;;;;;;6.53;4.50;;;7.20;99.90;;;;;;5011504;28;20022;-82
2021/04/04 00:18:57;;;;;;;5.47;4.70;;;7.40;99.90;;;;;;5012035;28;20025;-81
2021/04/04 00:21:22;;;;;;;5.00;3.92;;;7.40;99.90;;;;;;5011578;28;20030;-84
2021/04/04 00:23:48;;;;;;;4.80;4.13;;;7.30;99.90;;;;;;5011996;28;20018;-79
2021/04/04 00:26:14;;;;;;;5.18;4.30;;;7.30;99.90;;;;;;4994093;28;20022;-86
2021/04/04 00:28:40;;;;;;;4.50;4.05;;;7.40;99.90;;;;;;5007371;28;20032;-82
2021/04/04 00:31:05;;;;;;;4.82;4.07;;;7.40;99.90;;;;;;5012088;28;20032;-79
2021/04/04 00:33:31;;;;;;;5.05;4.13;;;7.30;99.90;;;;;;5011604;28;20025;-82
2021/04/04 00:35:57;;;;;;;5.10;4.20;;;7.20;99.90;;;;;;4994218;28;20076;-80
2021/04/04 00:38:23;;;;;;;6.57;4.57;;;7.20;99.90;;;;;;5012345;28;20022;-79
2021/04/04 00:40:48;;;;;;;5.53;4.35;;;7.10;99.90;;;;;;4994346;28;20022;-79
2021/04/04 00:43:14;;;;;;;5.70;4.90;;;7.10;99.90;;;;;;5011615;28;20022;-78
2021/04/04 00:45:41;;;;;;;6.65;5.40;;;7.10;99.90;;;;;;5011927;28;20018;-83
2021/04/04 00:48:07;;;;;;;7.70;5.43;;;7.20;99.90;;;;;;5011539;28;20384;-80
2021/04/04 00:50:39;;;;;;;6.82;5.13;;;7.00;99.90;;;;;;5012102;28;20022;-79
2021/04/04 00:53:06;;;;;;;7.43;6.13;;;7.00;99.90;;;;;;5012579;28;20018;-79
2021/04/04 00:55:33;;;;;;;7.30;5.60;;;7.00;99.90;;;;;;5010777;28;20050;-81
2021/04/04 00:57:59;;;;;;;8.00;5.70;;;7.00;99.90;;;;;;5014940;28;20014;-81
2021/04/04 01:00:28;;;;;;;6.47;5.35;;;7.00;99.90;;;;;;5015389;28;20093;-83
2021/04/04 01:02:55;;;;;;;8.00;5.90;;;7.10;99.90;;;;;;5014986;28;20018;-79
2021/04/04 01:05:30;;;;;;;7.53;5.47;;;7.20;99.90;;;;;;5015164;28;20365;-83
2021/04/04 01:07:57;;;;;;;6.80;5.35;;;7.40;99.90;;;;;;5015364;28;20044;-82
2021/04/04 01:10:27;;;;;;;7.28;5.68;;;7.20;99.90;;;;;;5015177;28;20113;-83
2021/04/04 01:13:16;;;;;;;6.53;5.30;;;7.20;99.90;;;;;;5015188;28;20097;-80
2021/04/04 01:16:01;;;;;;;6.80;5.65;;;7.20;99.90;;;;;;5015032;28;20022;-82
2021/04/04 01:18:45;;;;;;;6.57;5.35;;;7.20;99.90;;;;;;5015084;28;20100;-82
2021/04/04 01:21:16;;;;;;;6.60;4.95;;;7.10;99.90;;;;;;5015021;28;20033;-81
2021/04/04 01:24:16;;;;;;;7.20;5.50;;;7.00;99.90;;;;;;5014895;28;20018;-84
2021/04/04 01:27:04;;;;;;;6.50;4.93;;;6.80;99.90;;;;;;5014853;28;20053;-84
2021/04/04 01:29:32;;;;;;;7.35;5.53;;;6.70;99.90;;;;;;5014966;28;20026;-82
2021/04/04 01:31:59;;;;;;;6.18;5.00;;;6.70;99.90;;;;;;5014828;28;20080;-82
2021/04/04 01:34:28;;;;;;;5.97;5.00;;;6.60;99.90;;;;;;5014788;28;20022;-84
2021/04/04 01:36:59;;;;;;;6.20;5.05;;;6.40;99.90;;;;;;5015402;28;20042;-82
2021/04/04 01:39:26;;;;;;;;;;;6.40;99.90;;;;;;4997883;28;20029;-85
2021/04/04 01:41:53;;;;;;;5.78;4.60;;;6.40;99.90;;;;;;5014706;28;19908;-85
2021/04/04 01:44:22;;;;;;;5.32;4.13;;;6.40;99.90;;;;;;5014730;28;20018;-84
2021/04/04 01:46:52;;;;;;;7.13;5.00;;;6.30;99.90;;;;;;4997185;28;20135;-82
2021/04/04 01:49:20;;;;;;;5.32;4.20;;;6.40;99.90;;;;;;5014588;28;20022;-83
2021/04/04 01:51:46;;;;;;;5.57;4.60;;;6.40;99.90;;;;;;5014513;28;20415;-81
2021/04/04 01:54:15;;;;;;;4.90;4.20;;;6.40;99.90;;;;;;5014501;28;20025;-82
2021/04/04 01:56:42;;;;;;;5.78;4.55;;;6.40;99.90;;;;;;5014076;28;20014;-82
2021/04/04 01:59:10;;;;;;;5.38;4.60;;;6.30;99.90;;;;;;5014732;28;20022;-80
2021/04/04 02:01:36;;;;;;;4.40;4.00;;;6.30;99.90;;;;;;5014336;28;20357;-81
2021/04/04 02:04:07;;;;;;;4.63;4.10;;;6.30;99.90;;;;;;5014052;28;20025;-79
2021/04/04 02:06:36;;;;;;;4.65;3.78;;;6.30;99.90;;;;;;5014228;28;20028;-82
2021/04/04 02:09:08;;;;;;;6.25;4.15;;;6.10;99.90;;;;;;5012826;28;20030;-83
2021/04/04 02:11:35;;;;;;;4.40;3.88;;;6.20;99.90;;;;;;4996100;28;20018;-82
2021/04/04 02:14:07;;;;;;;4.90;3.85;;;6.10;99.90;;;;;;5013865;28;20022;-82
2021/04/04 02:16:36;;;;;;;4.68;4.00;;;6.20;99.90;;;;;;5013342;28;20069;-82
2021/04/04 02:19:05;;;;;;;4.45;4.00;;;6.10;99.90;;;;;;5014525;28;20029;-79
2021/04/04 02:21:32;;;;;;;4.43;3.67;;;6.10;99.90;;;;;;5014586;28;20358;-85
2021/04/04 02:24:04;;;;;;;4.22;3.75;;;6.00;99.90;;;;;;5013697;28;20153;-82
2021/04/04 02:26:32;;;;;;;4.22;3.72;;;5.70;99.90;;;;;;5013746;28;20022;-86
2021/04/04 02:28:58;;;;;;;4.15;3.75;;;5.70;99.90;;;;;;5013662;28;20041;-83
2021/04/04 02:31:28;;;;;;;5.57;3.90;;;5.70;99.90;;;;;;5013476;28;20369;-79
2021/04/04 02:34:00;;;;;;;4.65;4.00;;;5.70;99.90;;;;;;5013691;28;20071;-80
2021/04/04 02:36:28;;;;;;;3.97;3.58;;;5.60;99.90;;;;;;5013777;28;20420;-82
2021/04/04 02:39:00;;;;;;;4.47;4.00;;;5.60;99.90;;;;;;5013676;28;20026;-81
2021/04/04 02:41:28;;;;;;;5.40;4.30;;;5.60;99.90;;;;;;5012959;28;20085;-83
2021/04/04 02:43:56;;;;;;;4.82;4.15;;;5.60;99.90;;;;;;4995473;28;20030;-81
2021/04/04 02:46:24;;;;;;;4.63;4.00;;;5.50;99.90;;;;;;5013410;28;20057;-82
2021/04/04 02:49:02;;;;;;;5.53;4.60;;;5.60;99.90;;;;;;4993534;28;20065;-80
2021/04/04 02:51:36;;;;;;;6.57;4.80;;;5.70;99.90;;;;;;4993455;28;20135;-83
2021/04/04 02:54:03;;;;;;;4.65;4.20;;;5.60;99.90;;;;;;4993368;28;20031;-81
2021/04/04 02:56:36;;;;;;;5.70;5.10;;;5.50;99.90;;;;;;4993428;28;20069;-84
2021/04/04 02:59:04;;;;;;;5.40;4.78;;;5.60;99.90;;;;;;4993788;28;20014;-81
2021/04/04 03:01:32;;;;;;;5.70;4.53;;;5.80;99.90;;;;;;4993125;28;20026;-84
2021/04/04 03:03:58;;;;;;;5.50;4.97;;;5.60;99.90;;;;;;4993054;28;20065;-79
2021/04/04 03:06:26;;;;;;;7.28;5.35;;;5.70;99.90;;;;;;4993296;28;20022;-81
2021/04/04 03:08:53;;;;;;;6.60;4.88;;;6.00;99.90;;;;;;4993060;28;20030;-83
2021/04/04 03:11:20;;;;;;;5.63;4.57;;;6.00;99.90;;;;;;4992969;28;20458;-81
2021/04/04 03:13:49;;;;;;;7.05;4.93;;;5.70;99.90;;;;;;4993536;28;20030;-80
2021/04/04 03:16:18;;;;;;;5.47;4.38;;;5.60;99.90;;;;;;4993215;28;20014;-80
2021/04/04 03:18:44;;;;;;;7.15;5.50;;;5.70;99.90;;;;;;4992652;28;20026;-82
2021/04/04 03:21:12;;;;;;;6.75;5.75;;;5.60;99.90;;;;;;4993228;28;20023;-81
2021/04/04 03:23:39;;;;;;;9.65;5.43;;;5.50;99.90;;;;;;4992933;28;20022;-79
2021/04/04 03:26:06;;;;;;;7.00;5.38;;;5.40;99.90;;;;;;4992743;28;20034;-78
2021/04/04 03:28:32;;;;;;;7.43;5.65;;;5.40;99.90;;;;;;4992848;28;20062;-81
2021/04/04 03:31:00;;;;;;;6.57;5.00;;;5.40;99.90;;;;;;4993052;28;20041;-82
2021/04/04 03:33:26;;;;;;;6.93;6.20;;;5.40;99.90;;;;;;4975052;28;20088;-81
2021/04/04 03:35:53;;;;;;;8.13;5.80;;;5.30;99.90;;;;;;4992930;28;20018;-81
2021/04/04 03:38:21;;;;;;;8.43;6.20;;;5.20;99.90;;;;;;4992418;28;20073;-80
2021/04/04 03:40:48;;;;;;;6.55;5.15;;;5.20;99.90;;;;;;4992694;28;20014;-83
2021/04/04 03:43:22;;;;;;;7.20;5.95;;;5.20;99.90;;;;;;4992757;28;20026;-83
2021/04/04 03:45:56;;;;;;;6.72;5.97;;;5.30;99.90;;;;;;4993017;28;20027;-81
2021/04/04 03:48:22;;;;;;;6.50;5.30;;;5.20;99.90;;;;;;5008298;28;20038;-80
2021/04/04 03:50:49;;;;;;;7.78;6.25;;;5.00;99.90;;;;;;4995238;28;20057;-84
2021/04/04 03:53:21;;;;;;;7.10;5.72;;;5.10;99.90;;;;;;5011941;28;20022;-82
2021/04/04 03:55:55;;;;;;;6.88;5.35;;;5.10;99.90;;;;;;5012228;28;20365;-80
2021/04/04 03:58:26;;;;;;;7.82;5.82;;;5.00;99.90;;;;;;5012389;28;20097;-83
2021/04/04 04:00:55;;;;;;;8.43;6.15;;;5.10;99.90;;;;;;5012670;28;20063;-83
2021/04/04 04:03:22;;;;;;;9.90;6.60;;;5.00;99.90;;;;;;5012404;28;20361;-85
2021/04/04 04:05:49;;;;;;;7.72;6.10;;;5.10;99.90;;;;;;5012104;28;20165;-81
2021/04/04 04:08:19;;;;;;;6.95;5.93;;;5.00;99.90;;;;;;5012278;28;20033;-83
2021/04/04 04:10:47;;;;;;;9.55;6.43;;;5.10;99.90;;;;;;5011518;28;20025;-80
2021/04/04 04:13:15;;;;;;;8.57;6.60;;;5.10;99.90;;;;;;5012291;28;20018;-82
2021/04/04 04:15:41;;;;;;;8.38;6.47;;;5.20;99.90;;;;;;4975055;28;20069;-80
2021/04/04 04:18:08;;;;;;;8.32;6.22;;;5.20;99.90;;;;;;4992454;28;20026;-78
2021/04/04 04:20:35;;;;;;;7.30;6.00;;;5.20;99.90;;;;;;4992656;28;20030;-82
2021/04/04 04:23:05;;;;;;;8.38;6.43;;;5.20;99.90;;;;;;4975100;28;20158;-81
2021/04/04 04:25:32;;;;;;;6.87;5.50;;;5.30;99.90;;;;;;4992676;28;20101;-81
2021/04/04 04:27:59;;;;;;;8.63;6.70;;;5.30;99.90;;;;;;4975042;28;20057;-82
2021/04/04 04:30:26;;;;;;;7.93;6.32;;;5.40;99.90;;;;;;4992729;28;20047;-84
2021/04/04 04:33:04;;;;;;;8.75;6.30;;;5.50;99.90;;;;;;4978005;28;20369;-83
2021/04/04 04:35:32;;;;;;;10.52;6.55;;;5.50;99.90;;;;;;4996309;28;20029;-82
2021/04/04 04:37:59;;;;;;;8.57;6.53;;;5.70;99.90;;;;;;4996278;28;20057;-84
2021/04/04 04:40:26;;;;;;;7.68;6.20;;;5.80;99.90;;;;;;4995953;28;20022;-81
2021/04/04 04:42:54;;;;;;;8.13;6.45;;;5.60;99.90;;;;;;4996222;28;20156;-82
2021/04/04 04:45:25;;;;;;;9.05;6.75;;;5.60;99.90;;;;;;4996065;28;20046;-80
2021/04/04 04:47:53;;;;;;;8.40;7.00;;;5.60;99.90;;;;;;4996065;28;20093;-83
2021/04/04 04:50:20;;;;;;;9.52;6.57;;;5.60;99.90;;;;;;4995875;28;20019;-82
2021/04/04 04:52:46;;;;;;;8.40;6.20;;;5.70;99.90;;;;;;4978469;28;20113;-82
2021/04/04 04:55:12;;;;;;;8.55;6.43;;;5.80;99.90;;;;;;4995892;28;20099;-83
2021/04/04 04:57:39;;;;;;;7.05;5.70;;;6.00;99.90;;;;;;4995943;28;20106;-81
2021/04/04 05:00:09;;;;;;;6.43;5.32;;;6.00;99.90;;;;;;4995766;28;20025;-84
2021/04/04 05:02:36;;;;;;;7.20;5.72;;;6.40;99.90;;;;;;4978467;28;20050;-83
2021/04/04 05:05:05;;;;;;;7.30;5.78;;;6.60;99.90;;;;;;4995742;28;20025;-83
2021/04/04 05:07:33;;;;;;;6.68;5.15;;;6.60;99.90;;;;;;4995886;28;20374;-83
2021/04/04 05:10:02;;;;;;;6.50;5.20;;;6.80;99.90;;;;;;4995332;28;20029;-80
2021/04/04 05:12:30;;;;;;;6.90;5.18;;;6.70;99.90;;;;;;4995740;28;20030;-85
2021/04/04 05:14:55;;;;;;;7.53;5.60;;;6.80;99.90;;;;;;4989893;28;20376;-83
2021/04/04 05:17:21;;;;;;;6.28;5.05;;;6.60;99.90;;;;;;5015352;28;20022;-80
2021/04/04 05:19:49;;;;;;;7.35;5.70;;;6.60;99.90;;;;;;5014738;28;20032;-83
2021/04/04 05:22:15;;;;;;;8.73;5.95;;;6.60;99.90;;;;;;5015496;28;20686;-83
2021/04/04 05:24:42;;;;;;;6.72;5.50;;;6.40;99.90;;;;;;5015143;28;20050;-80
2021/04/04 05:27:08;;;;;;;6.97;5.75;;;6.50;99.90;;;;;;5014943;28;20025;-82
2021/04/04 05:29:34;;;;;;;7.60;6.10;;;6.60;99.90;;;;;;4997355;28;20022;-85
2021/04/04 05:31:59;;;;;;;8.10;5.57;;;6.70;99.90;;;;;;5014986;28;20033;-83
2021/04/04 05:34:27;;;;;;;6.43;5.32;;;6.60;99.90;;;;;;5014573;28;20536;-82
2021/04/04 05:36:54;;;;;;;7.22;5.63;;;7.00;99.90;;;;;;5015399;28;20022;-83
2021/04/04 05:39:25;;;;;;;7.80;5.72;;;7.20;99.90;;;;;;5014809;28;20342;-81
2021/04/04 05:41:56;;;;;;;7.88;6.07;;;7.20;99.90;;;;;;5014850;28;20068;-83
2021/04/04 05:44:47;;;;;;;6.97;5.70;;;6.80;99.90;;;;;;5014636;28;20018;-82
2021/04/04 05:47:15;;;;;;;;;;;7.30;99.90;;;;;;5014827;28;20045;-80
2021/04/04 05:49:53;;;;;;;7.38;6.10;;;7.60;99.90;;;;;;4997066;28;19912;-81
2021/04/04 05:52:38;;;;;;;9.18;6.57;;;7.80;99.90;;;;;;5014455;28;20030;-82
2021/04/04 05:55:13;;;;;;;8.68;6.97;;;7.70;99.90;;;;;;5014347;28;20017;-84
2021/04/04 05:58:02;;;;;;;9.02;6.15;;;7.80;99.90;;;;;;5014152;28;20465;-80
2021/04/04 06:00:32;;;;;;;7.82;6.10;;;7.90;99.90;;;;;;5014252;28;20021;-80
2021/04/04 06:03:23;;;;;;;8.73;6.50;;;7.90;99.90;;;;;;5014142;28;20381;-82
2021/04/04 06:06:20;;;;;;;9.27;7.07;;;8.00;99.90;;;;;;5013696;28;20162;-83
2021/04/04 06:09:08;;;;;;;8.57;6.82;;;8.10;99.90;;;;;;5014518;28;20423;-82
2021/04/04 06:12:08;;;;;;;8.98;6.90;;;8.00;99.90;;;;;;5014100;28;20026;-84
2021/04/04 06:15:11;;;;;;;9.50;7.38;;;8.00;99.90;;;;;;4996333;28;20365;-83
2021/04/04 06:18:09;;;;;;;9.43;7.32;;;8.00;99.90;;;;;;5013818;28;20080;-82
2021/04/04 06:21:14;;;;;;;9.70;6.97;;;7.90;99.90;;;;;;4996324;28;20495;-81
2021/04/04 06:23:48;;;;;;;8.82;6.88;;;8.10;99.90;;;;;;4973141;28;20056;-79
2021/04/04 06:26:28;;;;;;;9.35;7.03;;;8.10;99.90;;;;;;5013852;28;20076;-80
2021/04/04 06:29:00;;;;;;;9.88;6.97;;;8.20;99.90;;;;;;5014013;28;20036;-83
2021/04/04 06:32:01;;;;;;;9.40;7.15;;;8.30;99.90;;;;;;4976655;28;20117;-79
2021/04/04 06:35:01;;;;;;;11.00;7.82;;;8.30;99.90;;;;;;4991371;28;20515;-84
2021/04/04 06:38:08;;;;;;;10.60;7.45;;;8.30;99.90;;;;;;4947121;28;20109;-85
2021/04/04 06:41:08;;;;;;;9.60;7.00;;;8.30;99.90;;;;;;4992779;28;20030;-83
2021/04/04 06:44:09;;;;;;;10.20;7.43;;;8.20;99.90;;;;;;4994647;28;20029;-83
2021/04/04 06:46:54;;;;;;;10.35;7.97;;;8.40;99.90;;;;;;4996927;28;20034;-85
2021/04/04 06:49:44;;;;;;;10.68;7.78;;;8.50;99.90;;;;;;5013026;28;20065;-86
2021/04/04 06:55:47;;;;;;;12.35;7.90;;;8.30;99.90;;;;;;5011197;28;20048;-83
2021/04/04 06:58:24;;;;;;;13.80;8.27;;;8.60;99.90;;;;;;4995395;28;20029;-85
2021/04/04 07:01:24;;;;;;;10.68;8.07;;;8.20;99.90;;;;;;4993083;28;20109;-84
2021/04/04 07:07:51;;;;;;;12.15;8.43;;;8.40;99.90;;;;;;4977654;23;20144;-82
2021/04/04 07:10:51;;;;;;;11.15;8.57;;;7.30;99.90;;;;;;4994609;28;20045;-84
2021/04/04 07:13:55;;;;;;;11.18;9.15;;;8.00;99.90;;;;;;4992732;28;20034;-86
2021/04/04 07:16:39;;;;;;;12.27;8.70;;;8.10;99.90;;;;;;4993857;28;20116;-83
2021/04/04 07:19:59;;;;;;;12.70;9.00;;;7.60;99.90;;;;;;4994057;28;20021;-85
2021/04/04 07:22:43;;;;;;;10.68;8.75;;;7.90;99.90;;;;;;5005211;28;20034;-83
2021/04/04 07:28:15;;;;;;;11.38;9.00;;;8.50;99.90;;;;;;5341004;23;20055;-84
2021/04/04 07:30:51;;;;;;;11.98;9.07;;;8.10;99.90;;;;;;4990849;28;20026;-84
2021/04/04 07:33:45;;;;;;;21.50;14.63;;;8.20;99.90;;;;;;4992133;28;20022;-86
2021/04/04 07:36:26;;;;;;;23.35;14.95;;;8.30;99.90;;;;;;4976636;28;20036;-84
2021/04/04 07:39:11;;;;;;;22.33;14.43;;;7.90;99.90;;;;;;4974839;28;20023;-82
2021/04/04 07:42:09;;;;;;;25.33;15.38;;;8.40;99.90;;;;;;4969941;28;20076;-84
2021/04/04 07:44:41;;;;;;;24.60;16.40;;;8.10;99.90;;;;;;4948097;28;20447;-82
2021/04/04 07:47:34;;;;;;;32.35;20.60;;;8.30;99.90;;;;;;4952842;28;20484;-84
2021/04/04 07:50:05;;;;;;;26.25;16.40;;;8.60;99.90;;;;;;4933651;29;20156;-81
2021/04/04 07:52:49;;;;;;;;;;;8.20;99.90;;;;;;4947815;29;20494;-79
2021/04/04 07:55:36;;;;;;;11.98;8.27;;;8.40;99.90;;;;;;4948833;29;19993;-85
2021/04/04 07:58:07;;;;;;;11.35;8.52;;;9.10;99.90;;;;;;4964511;23;20034;-87
2021/04/04 08:00:41;;;;;;;12.80;9.05;;;9.00;99.90;;;;;;4993498;28;20096;-83
2021/04/04 08:03:23;;;;;;;12.85;8.52;;;9.20;99.90;;;;;;4992114;28;20019;-88
2021/04/04 08:05:51;;;;;;;13.07;8.75;;;9.30;99.90;;;;;;4993066;28;20026;-83
2021/04/04 08:08:24;;;;;;;13.30;9.10;;;9.10;99.90;;;;;;4993175;28;20034;-84
2021/04/04 08:11:01;;;;;;;12.68;8.65;;;8.80;99.90;;;;;;5011492;28;20022;-86
2021/04/04 08:13:42;;;;;;;9.73;8.15;;;8.00;99.90;;;;;;4994733;28;20036;-81
2021/04/04 08:16:24;;;;;;;9.93;8.45;;;7.70;99.90;;;;;;4994625;28;20124;-84
2021/04/04 08:18:53;;;;;;;10.02;7.53;;;7.80;99.90;;;;;;4995085;28;20375;-84
2021/04/04 08:21:42;;;;;;;9.35;7.30;;;7.40;99.90;;;;;;4992392;28;20117;-86
2021/04/04 08:24:31;;;;;;;11.32;8.10;;;7.60;99.90;;;;;;4998947;28;20026;-84
2021/04/04 08:27:04;;;;;;;10.65;7.95;;;7.80;99.90;;;;;;4995388;28;20014;-89
2021/04/04 08:30:07;;;;;;;9.50;7.65;;;8.10;99.90;;;;;;4997984;28;20397;-88
2021/04/04 08:33:17;;;;;;;10.82;8.25;;;8.00;99.90;;;;;;4998360;28;20022;-85
2021/04/04 08:36:17;;;;;;;14.05;9.52;;;8.20;99.90;;;;;;4997919;28;20109;-85
2021/04/04 08:44:00;;;;;;;9.80;7.63;;;8.70;99.90;;;;;;5030477;23;20119;-92
2021/04/04 08:46:39;;;;;;;8.93;7.22;;;8.90;99.90;;;;;;5014320;28;20125;-82
2021/04/04 08:49:06;;;;;;;10.55;7.68;;;9.60;99.90;;;;;;5036660;28;20474;-89
2021/04/04 08:51:39;;;;;;;9.68;7.43;;;9.40;99.90;;;;;;5018570;28;20017;-85
2021/04/04 08:54:13;;;;;;;9.43;7.53;;;9.10;99.90;;;;;;5030796;28;20429;-93
2021/04/04 08:56:42;;;;;;;9.18;7.30;;;9.40;99.90;;;;;;5000884;28;20036;-90
2021/04/04 08:59:08;;;;;;;8.25;6.75;;;9.50;99.90;;;;;;4997820;28;20022;-88
2021/04/04 09:01:39;;;;;;;12.55;6.93;;;9.60;99.90;;;;;;4980608;28;20019;-92
2021/04/04 09:04:06;;;;;;;;;;;8.80;99.90;;;;;;4962219;28;20106;-87
2021/04/04 09:07:09;;;;;;;10.32;7.05;;;8.50;99.90;;;;;;4965483;28;20246;-88
2021/04/04 09:09:38;;;;;;;8.63;6.88;;;9.30;99.90;;;;;;4938802;28;20042;-85
2021/04/04 09:12:05;;;;;;;8.40;7.17;;;10.00;99.90;;;;;;4977075;28;20019;-83
2021/04/04 09:17:40;;;;;;;9.93;7.22;;;10.20;99.90;;;;;;5002892;23;20089;-88
2021/04/04 09:22:32;;;;;;;8.77;7.18;;;10.40;99.90;;;;;;5020691;23;20134;-87
2021/04/04 09:25:09;;;;;;;10.55;7.50;;;10.10;99.90;;;;;;4999355;28;20433;-89
2021/04/04 09:27:45;;;;;;;8.80;6.80;;;10.10;99.90;;;;;;4998556;28;20111;-86
2021/04/04 09:30:33;;;;;;;9.75;7.05;;;10.20;99.90;;;;;;5017351;28;20334;-84
2021/04/04 09:33:02;;;;;;;10.63;6.68;;;10.10;99.90;;;;;;5015092;28;20450;-90
2021/04/04 09:35:32;;;;;;;7.93;6.35;;;10.20;99.90;;;;;;5007724;28;20469;-89
2021/04/04 09:38:05;;;;;;;8.10;6.18;;;10.10;99.90;;;;;;5015086;28;20037;-86
2021/04/04 09:41:01;;;;;;;8.52;6.47;;;9.70;99.90;;;;;;4997338;28;20018;-83
2021/04/04 09:43:27;;;;;;;9.82;7.38;;;10.00;99.90;;;;;;4998774;28;20036;-88
2021/04/04 09:46:03;;;;;;;8.50;6.68;;;10.10;99.90;;;;;;4998885;28;20053;-89
2021/04/04 09:48:45;;;;;;;8.55;6.25;;;10.20;99.90;;;;;;4997880;28;20124;-84
2021/04/04 09:51:20;;;;;;;17.27;11.88;;;10.30;99.90;;;;;;4997429;28;20116;-85
2021/04/04 09:53:49;;;;;;;38.03;21.15;;;10.60;99.90;;;;;;4997679;28;20124;-81
2021/04/04 09:56:17;;;;;;;10.80;8.48;;;10.40;99.90;;;;;;4996581;28;20116;-83
2021/04/04 09:58:46;;;;;;;9.93;7.35;;;10.10;99.90;;;;;;5014021;28;20026;-85
2021/04/04 10:01:23;;;;;;;64.78;37.28;;;10.10;99.90;;;;;;5034045;23;20046;-89
2021/04/04 10:04:05;;;;;;;15.07;10.45;;;10.60;99.90;;;;;;4979767;28;20068;-85
2021/04/04 10:07:03;;;;;;;10.25;8.10;;;10.30;99.90;;;;;;4995385;28;20034;-84
2021/04/04 10:09:39;;;;;;;9.13;7.15;;;9.80;99.90;;;;;;4978406;28;20038;-85
2021/04/04 10:12:06;;;;;;;8.82;6.55;;;9.20;99.90;;;;;;4979317;28;20113;-88
2021/04/04 10:18:01;;;;;;;10.15;7.38;;;9.40;99.90;;;;;;5373371;23;20381;-86
2021/04/04 10:20:51;;;;;;;9.68;7.38;;;9.60;99.90;;;;;;4978796;28;20657;-84
2021/04/04 10:23:17;;;;;;;10.38;7.45;;;9.70;99.90;;;;;;4997468;28;20028;-85
2021/04/04 10:26:05;;;;;;;9.90;7.75;;;9.60;99.90;;;;;;5012853;28;20028;-86
2021/04/04 10:28:54;;;;;;;9.98;7.55;;;9.60;99.90;;;;;;4997056;28;20488;-88
2021/04/04 10:31:22;;;;;;;10.63;8.02;;;9.40;99.90;;;;;;4996944;28;20058;-88
2021/04/04 10:33:58;;;;;;;10.82;7.65;;;9.40;99.90;;;;;;4997051;28;20030;-86
2021/04/04 10:36:27;;;;;;;10.38;8.07;;;9.10;99.90;;;;;;4995249;28;20021;-83
2021/04/04 10:38:57;;;;;;;10.10;8.38;;;9.20;99.90;;;;;;4995769;28;20024;-85
2021/04/04 10:41:30;;;;;;;11.18;8.45;;;9.20;99.90;;;;;;4996535;28;20032;-86
2021/04/04 10:43:57;;;;;;;10.00;7.75;;;9.30;99.90;;;;;;5013454;28;20026;-84
2021/04/04 10:46:28;;;;;;;10.45;8.10;;;9.30;99.90;;;;;;5012222;28;20465;-83
2021/04/04 10:48:58;;;;;;;9.43;7.43;;;9.30;99.90;;;;;;4987035;28;20041;-85
2021/04/04 10:51:25;;;;;;;8.25;6.45;;;9.10;99.90;;;;;;4993914;28;20026;-84
2021/04/04 10:53:51;;;;;;;7.88;6.22;;;9.10;99.90;;;;;;4986944;28;20029;-85
2021/04/04 10:56:17;;;;;;;8.63;6.45;;;9.00;99.90;;;;;;5006567;28;20105;-88
2021/04/04 11:02:08;;;;;;;10.20;7.15;;;8.70;99.90;;;;;;5040457;23;20072;-89
2021/04/04 11:04:56;;;;;;;9.52;7.38;;;8.80;99.90;;;;;;5006386;28;20014;-90
2021/04/04 11:11:00;;;;;;;9.65;7.22;;;8.90;99.90;;;;;;5013412;22;20520;-88
2021/04/04 11:18:56;;;;;;;10.77;7.32;;;7.70;99.90;;;;;;4437230;22;20042;-87
2021/04/04 11:31:36;;;;;;;9.07;7.35;;;8.70;99.90;;;;;;4857860;28;20047;-84
2021/04/04 11:34:40;;;;;;;9.63;6.75;;;8.60;99.90;;;;;;4964349;28;20035;-83
2021/04/04 11:37:31;;;;;;;10.23;7.80;;;8.80;99.90;;;;;;4993466;28;20046;-88
2021/04/04 11:40:27;;;;;;;10.68;7.40;;;8.90;99.90;;;;;;4970157;28;20030;-87
2021/04/04 11:43:54;;;;;;;8.63;7.13;;;8.30;99.90;;;;;;4976494;28;20031;-85
2021/04/04 11:47:07;;;;;;;7.72;6.45;;;8.70;99.90;;;;;;4979182;28;20109;-87
2021/04/04 11:49:48;;;;;;;8.57;7.10;;;9.00;99.90;;;;;;4974472;28;20161;-83
2021/04/04 11:52:29;;;;;;;;;;;9.00;99.90;;;;;;4978574;28;20359;-83
2021/04/04 11:54:59;;;;;;;8.65;6.55;;;9.00;99.90;;;;;;4996403;28;20385;-84
2021/04/04 11:57:31;;;;;;;10.57;7.13;;;9.20;99.90;;;;;;4994606;28;20033;-86
2021/04/04 12:00:03;;;;;;;8.27;6.00;;;9.20;99.90;;;;;;4995657;28;20028;-87
2021/04/04 12:02:30;;;;;;;10.63;6.63;;;9.10;99.90;;;;;;5013410;28;20030;-82
2021/04/04 12:05:25;;;;;;;8.77;6.95;;;9.30;99.90;;;;;;5011739;28;20018;-82
2021/04/04 12:07:53;;;;;;;9.93;7.07;;;9.10;99.90;;;;;;5012416;28;20061;-82
2021/04/04 12:10:27;;;;;;;9.48;7.22;;;9.00;99.90;;;;;;5013576;28;20655;-83
2021/04/04 12:12:53;;;;;;;9.32;6.90;;;9.00;99.90;;;;;;4979075;28;20465;-86
2021/04/04 12:15:23;;;;;;;10.15;6.88;;;8.90;99.90;;;;;;5008238;28;20030;-81
2021/04/04 12:17:57;;;;;;;9.07;6.20;;;9.00;99.90;;;;;;5032916;28;20053;-80
2021/04/04 12:20:28;;;;;;;8.32;6.60;;;9.30;99.90;;;;;;5032528;28;20173;-84
2021/04/04 12:22:54;;;;;;;9.95;7.35;;;9.50;99.90;;;;;;5013138;28;20033;-78
2021/04/04 12:25:25;;;;;;;9.23;6.60;;;9.70;99.90;;;;;;5030227;28;20443;-83
2021/04/04 12:27:53;;;;;;;8.35;6.45;;;9.60;99.90;;;;;;5031299;28;20042;-82
2021/04/04 12:30:35;;;;;;;58.35;33.10;;;9.60;99.90;;;;;;5013090;28;20041;-83
2021/04/04 12:33:06;;;;;;;8.13;7.05;;;9.70;99.90;;;;;;5003618;28;20025;-83
2021/04/04 12:35:34;;;;;;;8.60;6.30;;;9.40;99.90;;;;;;5011020;28;20101;-80
2021/04/04 12:38:01;;;;;;;7.60;6.10;;;8.50;99.90;;;;;;5011087;28;20366;-82
2021/04/04 12:40:27;;;;;;;8.57;5.82;;;8.50;99.90;;;;;;5010960;28;20504;-82
2021/04/04 12:42:58;;;;;;;7.43;5.43;;;8.70;99.90;;;;;;5011121;28;20381;-84
2021/04/04 12:45:24;;;;;;;8.05;5.93;;;8.40;99.90;;;;;;5011510;28;20026;-79
2021/04/04 12:47:50;;;;;;;7.00;5.63;;;8.50;99.90;;;;;;5013552;28;20033;-83
2021/04/04 12:50:22;;;;;;;7.95;5.72;;;8.60;99.90;;;;;;4994945;28;20077;-84
2021/04/04 12:52:50;;;;;;;7.28;6.05;;;8.50;99.90;;;;;;5014281;28;20443;-78
2021/04/04 12:55:27;;;;;;;7.95;6.25;;;8.40;99.90;;;;;;5025600;28;20033;-77
2021/04/04 12:58:01;;;;;;;7.43;6.10;;;8.30;99.90;;;;;;5035525;28;20069;-84
2021/04/04 13:00:41;;;;;;;7.78;5.88;;;8.30;99.90;;;;;;5017928;28;20474;-80
2021/04/04 13:03:12;;;;;;;8.15;6.07;;;8.30;99.90;;;;;;5017338;28;20495;-79
2021/04/04 13:05:39;;;;;;;8.02;6.07;;;8.50;99.90;;;;;;5034075;28;20053;-78
2021/04/04 13:08:17;;;;;;;7.80;5.60;;;8.80;99.90;;;;;;5034478;28;20032;-80
2021/04/04 13:10:46;;;;;;;7.25;5.57;;;8.90;99.90;;;;;;5016248;28;20135;-77
2021/04/04 13:13:18;;;;;;;7.97;5.60;;;8.40;99.90;;;;;;5027270;28;20030;-80
2021/04/04 13:15:45;;;;;;;5.93;5.03;;;8.60;99.90;;;;;;5023709;28;20485;-82
2021/04/04 13:18:41;;;;;;;7.85;5.85;;;8.50;99.90;;;;;;5024041;28;20040;-79
2021/04/04 13:21:16;;;;;;;8.18;5.80;;;8.60;99.90;;;;;;5020902;28;20037;-81
2021/04/04 13:23:44;;;;;;;7.30;4.88;;;8.50;99.90;;;;;;5017343;28;20030;-81
2021/04/04 13:26:29;;;;;;;6.22;4.90;;;7.80;99.90;;;;;;4997774;28;20034;-79
2021/04/04 13:29:03;;;;;;;7.30;5.72;;;7.60;99.90;;;;;;5021792;28;20069;-81
2021/04/04 13:31:31;;;;;;;5.53;4.80;;;7.70;99.90;;;;;;5019911;28;20072;-80
2021/04/04 13:34:10;;;;;;;6.10;4.90;;;7.20;99.90;;;;;;5021789;28;20017;-83
2021/04/04 13:36:50;;;;;;;6.70;4.90;;;7.10;99.90;;;;;;5021591;28;20371;-80
2021/04/04 13:39:28;;;;;;;6.20;4.75;;;7.20;99.90;;;;;;5022555;28;20072;-81
2021/04/04 13:41:55;;;;;;;5.93;4.78;;;7.30;99.90;;;;;;5022363;28;20034;-82
2021/04/04 13:44:23;;;;;;;6.13;4.75;;;7.20;99.90;;;;;;5004532;28;20044;-81
2021/04/04 13:46:57;;;;;;;8.07;5.00;;;7.10;99.90;;;;;;5023148;28;20452;-81
2021/04/04 13:49:35;;;;;;;6.40;5.05;;;6.90;99.90;;;;;;5023531;28;20030;-81
2021/04/04 13:52:11;;;;;;;6.53;4.93;;;7.00;99.90;;;;;;5023405;28;20029;-82
2021/04/04 13:54:38;;;;;;;7.63;4.50;;;7.10;99.90;;;;;;5020967;28;20030;-82
2021/04/04 13:57:04;;;;;;;6.72;5.20;;;7.20;99.90;;;;;;5021150;28;20361;-89
2021/04/04 13:59:31;;;;;;;5.05;4.10;;;7.30;99.90;;;;;;5003944;28;20099;-80
2021/04/04 14:02:02;;;;;;;5.22;4.38;;;6.70;99.90;;;;;;5004105;28;20024;-80
2021/04/04 14:04:34;;;;;;;10.23;7.13;;;6.70;99.90;;;;;;5000597;28;20018;-82
2021/04/04 14:07:14;;;;;;;6.75;5.45;;;7.00;99.90;;;;;;5003553;28;20392;-81
2021/04/04 14:09:42;;;;;;;5.60;4.65;;;6.80;99.90;;;;;;5004556;28;20034;-82
2021/04/04 14:12:10;;;;;;;9.07;5.90;;;6.90;99.90;;;;;;5000829;28;20037;-83
2021/04/04 14:14:38;;;;;;;24.08;15.48;;;6.90;99.90;;;;;;5021650;28;20152;-83
2021/04/04 14:17:05;;;;;;;7.75;6.85;;;7.20;99.90;;;;;;5005686;28;20052;-83
2021/04/04 14:19:32;;;;;;;8.68;6.53;;;7.20;99.90;;;;;;5002574;28;20456;-83